sensor_id;sensor_type;location;lat;lon;timestamp;P1;durP1;ratioP1;P2;durP2;ratioP2
71679;SDS011;59512;42.662;23.254;2023-03-19T00:01:43;18.88;;;11.07;;
71679;SDS011;59512;42.662;23.254;2023-03-19T00:04:09;18.67;;;11.30;;
71679;SDS011;59512;42.662;23.254;2023-03-19T00:06:35;16.67;;;9.38;;
71679;SDS011;59512;42.662;23.254;2023-03-19T00:09:00;18.27;;;10.67;;
71679;SDS011;59512;42.662;23.254;2023-03-19T00:11:26;21.00;;;12.00;;
71679;SDS011;59512;42.662;23.254;2023-03-19T00:13:51;20.43;;;11.70;;
71679;SDS011;59512;42.662;23.254;2023-03-19T00:16:17;22.38;;;10.98;;
71679;SDS011;59512;42.662;23.254;2023-03-19T00:18:42;18.97;;;11.30;;
71679;SDS011;59512;42.662;23.254;2023-03-19T00:21:08;14.57;;;9.30;;
71679;SDS011;59512;42.662;23.254;2023-03-19T00:23:33;17.80;;;8.80;;
71679;SDS011;59512;42.662;23.254;2023-03-19T00:26:00;17.20;;;9.60;;
71679;SDS011;59512;42.662;23.254;2023-03-19T00:28:26;19.63;;;10.60;;
71679;SDS011;59512;42.662;23.254;2023-03-19T00:30:51;16.60;;;10.33;;
71679;SDS011;59512;42.662;23.254;2023-03-19T00:33:16;15.97;;;9.00;;
71679;SDS011;59512;42.662;23.254;2023-03-19T00:35:42;13.93;;;8.18;;
71679;SDS011;59512;42.662;23.254;2023-03-19T00:38:07;14.73;;;8.43;;
71679;SDS011;59512;42.662;23.254;2023-03-19T00:40:33;14.70;;;8.10;;
71679;SDS011;59512;42.662;23.254;2023-03-19T00:42:59;14.55;;;8.52;;
71679;SDS011;59512;42.662;23.254;2023-03-19T00:45:25;16.05;;;8.57;;
71679;SDS011;59512;42.662;23.254;2023-03-19T00:47:51;17.27;;;9.07;;
71679;SDS011;59512;42.662;23.254;2023-03-19T00:50:16;16.97;;;10.03;;
71679;SDS011;59512;42.662;23.254;2023-03-19T00:52:42;18.47;;;10.30;;
71679;SDS011;59512;42.662;23.254;2023-03-19T00:55:07;16.90;;;8.90;;
71679;SDS011;59512;42.662;23.254;2023-03-19T00:57:33;18.53;;;9.87;;
71679;SDS011;59512;42.662;23.254;2023-03-19T00:59:58;16.55;;;8.10;;
71679;SDS011;59512;42.662;23.254;2023-03-19T01:02:24;16.07;;;8.13;;
71679;SDS011;59512;42.662;23.254;2023-03-19T01:04:50;18.10;;;8.83;;
71679;SDS011;59512;42.662;23.254;2023-03-19T01:07:15;19.42;;;8.63;;
71679;SDS011;59512;42.662;23.254;2023-03-19T01:09:41;15.17;;;7.57;;
71679;SDS011;59512;42.662;23.254;2023-03-19T01:12:06;16.53;;;8.27;;
71679;SDS011;59512;42.662;23.254;2023-03-19T01:14:33;16.70;;;8.23;;
71679;SDS011;59512;42.662;23.254;2023-03-19T01:16:58;17.50;;;8.40;;
71679;SDS011;59512;42.662;23.254;2023-03-19T01:19:25;18.70;;;8.90;;
71679;SDS011;59512;42.662;23.254;2023-03-19T01:21:52;25.92;;;12.07;;
71679;SDS011;59512;42.662;23.254;2023-03-19T01:24:18;30.37;;;14.43;;
71679;SDS011;59512;42.662;23.254;2023-03-19T01:26:43;25.97;;;13.27;;
71679;SDS011;59512;42.662;23.254;2023-03-19T01:29:09;21.48;;;12.65;;
71679;SDS011;59512;42.662;23.254;2023-03-19T01:31:35;18.80;;;10.67;;
71679;SDS011;59512;42.662;23.254;2023-03-19T01:34:01;19.70;;;10.95;;
71679;SDS011;59512;42.662;23.254;2023-03-19T01:36:27;25.65;;;12.32;;
71679;SDS011;59512;42.662;23.254;2023-03-19T01:38:53;28.17;;;12.77;;
71679;SDS011;59512;42.662;23.254;2023-03-19T01:41:21;36.92;;;14.77;;
71679;SDS011;59512;42.662;23.254;2023-03-19T01:43:47;17.33;;;9.60;;
71679;SDS011;59512;42.662;23.254;2023-03-19T01:46:20;16.57;;;9.60;;
71679;SDS011;59512;42.662;23.254;2023-03-19T01:48:57;17.38;;;8.98;;
71679;SDS011;59512;42.662;23.254;2023-03-19T01:51:25;20.48;;;9.55;;
71679;SDS011;59512;42.662;23.254;2023-03-19T01:53:59;16.58;;;8.07;;
71679;SDS011;59512;42.662;23.254;2023-03-19T01:56:35;17.17;;;9.23;;
71679;SDS011;59512;42.662;23.254;2023-03-19T01:59:05;17.70;;;8.43;;
71679;SDS011;59512;42.662;23.254;2023-03-19T02:01:34;19.48;;;8.82;;
71679;SDS011;59512;42.662;23.254;2023-03-19T02:04:04;21.90;;;10.75;;
71679;SDS011;59512;42.662;23.254;2023-03-19T02:06:30;25.50;;;11.95;;
71679;SDS011;59512;42.662;23.254;2023-03-19T02:08:57;86.97;;;28.88;;
71679;SDS011;59512;42.662;23.254;2023-03-19T02:11:23;23.97;;;12.30;;
71679;SDS011;59512;42.662;23.254;2023-03-19T02:13:48;29.02;;;14.90;;
71679;SDS011;59512;42.662;23.254;2023-03-19T02:16:14;19.53;;;10.57;;
71679;SDS011;59512;42.662;23.254;2023-03-19T02:18:40;19.77;;;10.82;;
71679;SDS011;59512;42.662;23.254;2023-03-19T02:21:06;37.03;;;15.50;;
71679;SDS011;59512;42.662;23.254;2023-03-19T02:23:44;17.95;;;9.82;;
71679;SDS011;59512;42.662;23.254;2023-03-19T02:26:18;18.60;;;9.18;;
71679;SDS011;59512;42.662;23.254;2023-03-19T02:28:46;18.23;;;10.68;;
71679;SDS011;59512;42.662;23.254;2023-03-19T02:31:13;22.30;;;10.03;;
71679;SDS011;59512;42.662;23.254;2023-03-19T02:33:40;19.05;;;10.25;;
71679;SDS011;59512;42.662;23.254;2023-03-19T02:36:07;23.63;;;11.80;;
71679;SDS011;59512;42.662;23.254;2023-03-19T02:38:38;16.23;;;9.10;;
71679;SDS011;59512;42.662;23.254;2023-03-19T02:41:06;17.23;;;9.18;;
71679;SDS011;59512;42.662;23.254;2023-03-19T02:43:33;20.05;;;9.32;;
71679;SDS011;59512;42.662;23.254;2023-03-19T02:46:01;15.60;;;9.10;;
71679;SDS011;59512;42.662;23.254;2023-03-19T02:48:31;18.97;;;9.70;;
71679;SDS011;59512;42.662;23.254;2023-03-19T02:50:57;28.33;;;12.65;;
71679;SDS011;59512;42.662;23.254;2023-03-19T02:53:23;18.70;;;10.17;;
71679;SDS011;59512;42.662;23.254;2023-03-19T02:55:48;22.60;;;11.70;;
71679;SDS011;59512;42.662;23.254;2023-03-19T02:58:13;20.77;;;10.53;;
71679;SDS011;59512;42.662;23.254;2023-03-19T03:00:40;32.57;;;14.97;;
71679;SDS011;59512;42.662;23.254;2023-03-19T03:03:06;156.27;;;48.75;;
71679;SDS011;59512;42.662;23.254;2023-03-19T03:05:32;77.80;;;26.80;;
71679;SDS011;59512;42.662;23.254;2023-03-19T03:07:58;33.47;;;14.63;;
71679;SDS011;59512;42.662;23.254;2023-03-19T03:10:24;21.17;;;11.90;;
71679;SDS011;59512;42.662;23.254;2023-03-19T03:12:50;19.00;;;10.77;;
71679;SDS011;59512;42.662;23.254;2023-03-19T03:15:15;17.58;;;11.48;;
71679;SDS011;59512;42.662;23.254;2023-03-19T03:17:41;21.10;;;11.67;;
71679;SDS011;59512;42.662;23.254;2023-03-19T03:20:08;20.38;;;11.00;;
71679;SDS011;59512;42.662;23.254;2023-03-19T03:22:35;17.40;;;9.77;;
71679;SDS011;59512;42.662;23.254;2023-03-19T03:25:02;20.02;;;10.18;;
71679;SDS011;59512;42.662;23.254;2023-03-19T03:27:28;19.85;;;10.30;;
71679;SDS011;59512;42.662;23.254;2023-03-19T03:29:53;17.03;;;9.70;;
71679;SDS011;59512;42.662;23.254;2023-03-19T03:32:18;21.40;;;11.47;;
71679;SDS011;59512;42.662;23.254;2023-03-19T03:34:44;21.55;;;10.98;;
71679;SDS011;59512;42.662;23.254;2023-03-19T03:37:10;22.27;;;10.47;;
71679;SDS011;59512;42.662;23.254;2023-03-19T03:39:36;17.77;;;10.27;;
71679;SDS011;59512;42.662;23.254;2023-03-19T03:42:02;18.42;;;10.32;;
71679;SDS011;59512;42.662;23.254;2023-03-19T03:44:27;16.33;;;9.53;;
71679;SDS011;59512;42.662;23.254;2023-03-19T03:46:53;17.27;;;9.88;;
71679;SDS011;59512;42.662;23.254;2023-03-19T03:49:18;16.92;;;9.90;;
71679;SDS011;59512;42.662;23.254;2023-03-19T03:51:43;16.33;;;9.73;;
71679;SDS011;59512;42.662;23.254;2023-03-19T03:54:09;18.03;;;10.10;;
71679;SDS011;59512;42.662;23.254;2023-03-19T03:56:34;17.50;;;10.13;;
71679;SDS011;59512;42.662;23.254;2023-03-19T03:59:01;16.75;;;10.27;;
71679;SDS011;59512;42.662;23.254;2023-03-19T04:01:27;17.70;;;11.45;;
71679;SDS011;59512;42.662;23.254;2023-03-19T04:03:53;31.47;;;16.57;;
71679;SDS011;59512;42.662;23.254;2023-03-19T04:06:19;50.60;;;24.90;;
71679;SDS011;59512;42.662;23.254;2023-03-19T04:08:46;35.05;;;18.95;;
71679;SDS011;59512;42.662;23.254;2023-03-19T04:11:12;29.13;;;16.07;;
71679;SDS011;59512;42.662;23.254;2023-03-19T04:13:37;21.87;;;13.37;;
71679;SDS011;59512;42.662;23.254;2023-03-19T04:16:06;23.23;;;14.20;;
71679;SDS011;59512;42.662;23.254;2023-03-19T04:18:33;25.27;;;14.87;;
71679;SDS011;59512;42.662;23.254;2023-03-19T04:20:59;23.00;;;13.50;;
71679;SDS011;59512;42.662;23.254;2023-03-19T04:23:24;23.27;;;15.90;;
71679;SDS011;59512;42.662;23.254;2023-03-19T04:25:50;25.80;;;15.82;;
71679;SDS011;59512;42.662;23.254;2023-03-19T04:28:16;21.50;;;14.13;;
71679;SDS011;59512;42.662;23.254;2023-03-19T04:30:41;23.30;;;14.60;;
71679;SDS011;59512;42.662;23.254;2023-03-19T04:33:10;22.43;;;13.37;;
71679;SDS011;59512;42.662;23.254;2023-03-19T04:35:36;25.45;;;14.98;;
71679;SDS011;59512;42.662;23.254;2023-03-19T04:38:01;26.97;;;15.67;;
71679;SDS011;59512;42.662;23.254;2023-03-19T04:40:28;25.35;;;15.35;;
71679;SDS011;59512;42.662;23.254;2023-03-19T04:42:53;24.40;;;15.33;;
71679;SDS011;59512;42.662;23.254;2023-03-19T04:45:18;22.20;;;13.82;;
71679;SDS011;59512;42.662;23.254;2023-03-19T04:47:44;20.67;;;12.23;;
71679;SDS011;59512;42.662;23.254;2023-03-19T04:50:09;27.17;;;15.50;;
71679;SDS011;59512;42.662;23.254;2023-03-19T04:52:35;28.87;;;16.53;;
71679;SDS011;59512;42.662;23.254;2023-03-19T04:55:04;26.30;;;15.50;;
71679;SDS011;59512;42.662;23.254;2023-03-19T04:57:31;24.10;;;14.68;;
71679;SDS011;59512;42.662;23.254;2023-03-19T04:59:57;23.33;;;13.03;;
71679;SDS011;59512;42.662;23.254;2023-03-19T05:02:22;22.50;;;12.73;;
71679;SDS011;59512;42.662;23.254;2023-03-19T05:04:48;21.35;;;12.20;;
71679;SDS011;59512;42.662;23.254;2023-03-19T05:07:13;31.30;;;22.27;;
71679;SDS011;59512;42.662;23.254;2023-03-19T05:09:39;30.13;;;19.23;;
71679;SDS011;59512;42.662;23.254;2023-03-19T05:12:07;26.08;;;14.63;;
71679;SDS011;59512;42.662;23.254;2023-03-19T05:14:32;28.75;;;16.67;;
71679;SDS011;59512;42.662;23.254;2023-03-19T05:16:58;28.70;;;16.90;;
71679;SDS011;59512;42.662;23.254;2023-03-19T05:19:23;33.10;;;18.27;;
71679;SDS011;59512;42.662;23.254;2023-03-19T05:21:49;25.48;;;14.65;;
71679;SDS011;59512;42.662;23.254;2023-03-19T05:24:15;23.27;;;14.32;;
71679;SDS011;59512;42.662;23.254;2023-03-19T05:26:40;25.70;;;14.47;;
71679;SDS011;59512;42.662;23.254;2023-03-19T05:29:05;24.63;;;13.60;;
71679;SDS011;59512;42.662;23.254;2023-03-19T05:31:34;22.52;;;13.43;;
71679;SDS011;59512;42.662;23.254;2023-03-19T05:34:00;22.73;;;12.90;;
71679;SDS011;59512;42.662;23.254;2023-03-19T05:36:26;25.40;;;14.17;;
71679;SDS011;59512;42.662;23.254;2023-03-19T05:38:52;24.67;;;14.38;;
71679;SDS011;59512;42.662;23.254;2023-03-19T05:41:17;24.37;;;15.30;;
71679;SDS011;59512;42.662;23.254;2023-03-19T05:43:43;25.63;;;15.47;;
71679;SDS011;59512;42.662;23.254;2023-03-19T05:46:08;34.33;;;21.07;;
71679;SDS011;59512;42.662;23.254;2023-03-19T05:48:33;35.58;;;20.05;;
71679;SDS011;59512;42.662;23.254;2023-03-19T05:50:59;32.50;;;21.63;;
71679;SDS011;59512;42.662;23.254;2023-03-19T05:53:24;31.37;;;19.80;;
71679;SDS011;59512;42.662;23.254;2023-03-19T05:55:50;29.90;;;19.47;;
71679;SDS011;59512;42.662;23.254;2023-03-19T05:58:15;32.33;;;20.67;;
71679;SDS011;59512;42.662;23.254;2023-03-19T06:00:41;38.97;;;20.83;;
71679;SDS011;59512;42.662;23.254;2023-03-19T06:03:06;34.30;;;21.05;;
71679;SDS011;59512;42.662;23.254;2023-03-19T06:05:42;33.25;;;21.40;;
71679;SDS011;59512;42.662;23.254;2023-03-19T06:08:07;31.57;;;19.60;;
71679;SDS011;59512;42.662;23.254;2023-03-19T06:10:33;29.98;;;18.88;;
71679;SDS011;59512;42.662;23.254;2023-03-19T06:13:00;30.23;;;19.27;;
71679;SDS011;59512;42.662;23.254;2023-03-19T06:15:25;28.50;;;18.67;;
71679;SDS011;59512;42.662;23.254;2023-03-19T06:17:51;30.27;;;18.93;;
71679;SDS011;59512;42.662;23.254;2023-03-19T06:20:16;28.50;;;18.40;;
71679;SDS011;59512;42.662;23.254;2023-03-19T06:22:42;34.50;;;18.85;;
71679;SDS011;59512;42.662;23.254;2023-03-19T06:25:08;29.97;;;17.53;;
71679;SDS011;59512;42.662;23.254;2023-03-19T06:27:34;28.92;;;17.50;;
71679;SDS011;59512;42.662;23.254;2023-03-19T06:29:59;28.83;;;17.90;;
71679;SDS011;59512;42.662;23.254;2023-03-19T06:32:24;27.00;;;16.90;;
71679;SDS011;59512;42.662;23.254;2023-03-19T06:34:50;29.75;;;18.20;;
71679;SDS011;59512;42.662;23.254;2023-03-19T06:37:15;29.40;;;18.55;;
71679;SDS011;59512;42.662;23.254;2023-03-19T06:39:41;31.13;;;18.83;;
71679;SDS011;59512;42.662;23.254;2023-03-19T06:42:06;30.53;;;18.07;;
71679;SDS011;59512;42.662;23.254;2023-03-19T06:44:32;26.13;;;17.43;;
71679;SDS011;59512;42.662;23.254;2023-03-19T06:46:57;31.38;;;17.55;;
71679;SDS011;59512;42.662;23.254;2023-03-19T06:49:22;30.90;;;19.00;;
71679;SDS011;59512;42.662;23.254;2023-03-19T06:51:48;31.00;;;18.37;;
71679;SDS011;59512;42.662;23.254;2023-03-19T06:54:13;30.40;;;18.47;;
71679;SDS011;59512;42.662;23.254;2023-03-19T06:56:39;30.97;;;18.37;;
71679;SDS011;59512;42.662;23.254;2023-03-19T06:59:05;29.30;;;15.85;;
71679;SDS011;59512;42.662;23.254;2023-03-19T07:01:30;26.00;;;15.70;;
71679;SDS011;59512;42.662;23.254;2023-03-19T07:03:56;26.20;;;15.23;;
71679;SDS011;59512;42.662;23.254;2023-03-19T07:06:21;26.00;;;14.47;;
71679;SDS011;59512;42.662;23.254;2023-03-19T07:08:47;27.15;;;14.38;;
71679;SDS011;59512;42.662;23.254;2023-03-19T07:11:13;22.73;;;13.43;;
71679;SDS011;59512;42.662;23.254;2023-03-19T07:13:39;22.33;;;12.65;;
71679;SDS011;59512;42.662;23.254;2023-03-19T07:16:05;19.90;;;11.55;;
71679;SDS011;59512;42.662;23.254;2023-03-19T07:18:31;21.00;;;12.47;;
71679;SDS011;59512;42.662;23.254;2023-03-19T07:20:56;21.03;;;11.20;;
71679;SDS011;59512;42.662;23.254;2023-03-19T07:23:22;16.63;;;11.02;;
71679;SDS011;59512;42.662;23.254;2023-03-19T07:25:47;17.30;;;10.63;;
71679;SDS011;59512;42.662;23.254;2023-03-19T07:28:13;18.23;;;10.00;;
71679;SDS011;59512;42.662;23.254;2023-03-19T07:30:39;20.33;;;10.82;;
71679;SDS011;59512;42.662;23.254;2023-03-19T07:33:05;18.50;;;10.30;;
71679;SDS011;59512;42.662;23.254;2023-03-19T07:35:31;17.10;;;9.68;;
71679;SDS011;59512;42.662;23.254;2023-03-19T07:37:57;22.02;;;9.82;;
71679;SDS011;59512;42.662;23.254;2023-03-19T07:40:23;18.20;;;9.57;;
71679;SDS011;59512;42.662;23.254;2023-03-19T07:42:49;18.38;;;9.55;;
71679;SDS011;59512;42.662;23.254;2023-03-19T07:45:15;18.38;;;11.18;;
71679;SDS011;59512;42.662;23.254;2023-03-19T07:47:40;20.30;;;10.73;;
71679;SDS011;59512;42.662;23.254;2023-03-19T07:50:06;16.80;;;9.93;;
71679;SDS011;59512;42.662;23.254;2023-03-19T07:52:32;18.42;;;11.07;;
71679;SDS011;59512;42.662;23.254;2023-03-19T07:54:58;22.83;;;13.37;;
71679;SDS011;59512;42.662;23.254;2023-03-19T07:57:23;20.43;;;12.10;;
71679;SDS011;59512;42.662;23.254;2023-03-19T07:59:50;19.13;;;11.13;;
71679;SDS011;59512;42.662;23.254;2023-03-19T08:02:15;19.23;;;12.00;;
71679;SDS011;59512;42.662;23.254;2023-03-19T08:04:42;20.25;;;12.43;;
71679;SDS011;59512;42.662;23.254;2023-03-19T08:07:07;20.33;;;12.33;;
71679;SDS011;59512;42.662;23.254;2023-03-19T08:09:36;20.70;;;12.43;;
71679;SDS011;59512;42.662;23.254;2023-03-19T08:12:02;21.65;;;13.13;;
71679;SDS011;59512;42.662;23.254;2023-03-19T08:14:28;23.63;;;14.23;;
71679;SDS011;59512;42.662;23.254;2023-03-19T08:16:53;24.73;;;13.97;;
71679;SDS011;59512;42.662;23.254;2023-03-19T08:19:19;20.70;;;13.23;;
71679;SDS011;59512;42.662;23.254;2023-03-19T08:21:44;20.85;;;13.15;;
71679;SDS011;59512;42.662;23.254;2023-03-19T08:24:10;23.00;;;12.93;;
71679;SDS011;59512;42.662;23.254;2023-03-19T08:26:35;20.17;;;12.10;;
71679;SDS011;59512;42.662;23.254;2023-03-19T08:29:01;20.73;;;13.10;;
71679;SDS011;59512;42.662;23.254;2023-03-19T08:31:28;21.50;;;13.07;;
71679;SDS011;59512;42.662;23.254;2023-03-19T08:33:54;23.77;;;14.68;;
71679;SDS011;59512;42.662;23.254;2023-03-19T08:36:20;21.63;;;13.60;;
71679;SDS011;59512;42.662;23.254;2023-03-19T08:38:45;21.08;;;13.02;;
71679;SDS011;59512;42.662;23.254;2023-03-19T08:41:11;22.10;;;13.83;;
71679;SDS011;59512;42.662;23.254;2023-03-19T08:43:36;23.70;;;14.13;;
71679;SDS011;59512;42.662;23.254;2023-03-19T08:46:02;20.93;;;13.80;;
71679;SDS011;59512;42.662;23.254;2023-03-19T08:48:28;20.73;;;13.57;;
71679;SDS011;59512;42.662;23.254;2023-03-19T08:50:55;22.48;;;13.98;;
71679;SDS011;59512;42.662;23.254;2023-03-19T08:53:22;20.42;;;13.57;;
71679;SDS011;59512;42.662;23.254;2023-03-19T08:55:51;22.20;;;13.97;;
71679;SDS011;59512;42.662;23.254;2023-03-19T08:58:18;21.95;;;13.77;;
71679;SDS011;59512;42.662;23.254;2023-03-19T09:00:43;19.67;;;13.65;;
71679;SDS011;59512;42.662;23.254;2023-03-19T09:03:09;21.80;;;13.73;;
71679;SDS011;59512;42.662;23.254;2023-03-19T09:05:34;20.77;;;15.07;;
71679;SDS011;59512;42.662;23.254;2023-03-19T09:08:00;22.60;;;13.50;;
71679;SDS011;59512;42.662;23.254;2023-03-19T09:10:25;21.17;;;13.77;;
71679;SDS011;59512;42.662;23.254;2023-03-19T09:12:51;22.77;;;14.10;;
71679;SDS011;59512;42.662;23.254;2023-03-19T09:15:16;23.13;;;14.77;;
71679;SDS011;59512;42.662;23.254;2023-03-19T09:17:42;24.83;;;15.18;;
71679;SDS011;59512;42.662;23.254;2023-03-19T09:20:08;24.67;;;15.27;;
71679;SDS011;59512;42.662;23.254;2023-03-19T09:22:34;23.48;;;16.20;;
71679;SDS011;59512;42.662;23.254;2023-03-19T09:25:00;28.30;;;17.98;;
71679;SDS011;59512;42.662;23.254;2023-03-19T09:27:25;39.13;;;24.17;;
71679;SDS011;59512;42.662;23.254;2023-03-19T09:29:51;22.67;;;15.33;;
71679;SDS011;59512;42.662;23.254;2023-03-19T09:32:16;23.27;;;16.13;;
71679;SDS011;59512;42.662;23.254;2023-03-19T09:34:42;25.10;;;17.38;;
71679;SDS011;59512;42.662;23.254;2023-03-19T09:37:07;25.73;;;18.03;;
71679;SDS011;59512;42.662;23.254;2023-03-19T09:39:35;25.63;;;14.85;;
71679;SDS011;59512;42.662;23.254;2023-03-19T09:45:10;22.80;;;15.80;;
71679;SDS011;59512;42.662;23.254;2023-03-19T09:47:37;25.27;;;15.30;;
71679;SDS011;59512;42.662;23.254;2023-03-19T09:50:16;22.13;;;14.53;;
71679;SDS011;59512;42.662;23.254;2023-03-19T09:55:39;22.40;;;14.25;;
71679;SDS011;59512;42.662;23.254;2023-03-19T09:58:14;23.60;;;13.98;;
71679;SDS011;59512;42.662;23.254;2023-03-19T10:00:43;21.75;;;14.68;;
71679;SDS011;59512;42.662;23.254;2023-03-19T10:16:34;21.05;;;13.70;;
71679;SDS011;59512;42.662;23.254;2023-03-19T10:19:01;21.30;;;13.13;;
71679;SDS011;59512;42.662;23.254;2023-03-19T10:21:35;20.57;;;12.10;;
71679;SDS011;59512;42.662;23.254;2023-03-19T10:24:10;19.58;;;12.30;;
71679;SDS011;59512;42.662;23.254;2023-03-19T10:26:41;19.17;;;12.48;;
71679;SDS011;59512;42.662;23.254;2023-03-19T10:29:09;20.20;;;12.35;;
71679;SDS011;59512;42.662;23.254;2023-03-19T10:36:44;19.00;;;12.13;;
71679;SDS011;59512;42.662;23.254;2023-03-19T10:39:09;18.37;;;11.77;;
71679;SDS011;59512;42.662;23.254;2023-03-19T10:44:41;17.58;;;10.60;;
71679;SDS011;59512;42.662;23.254;2023-03-19T10:47:12;18.02;;;11.07;;
71679;SDS011;59512;42.662;23.254;2023-03-19T10:49:39;18.15;;;11.25;;
71679;SDS011;59512;42.662;23.254;2023-03-19T10:52:08;18.37;;;11.33;;
71679;SDS011;59512;42.662;23.254;2023-03-19T10:54:42;20.33;;;12.93;;
71679;SDS011;59512;42.662;23.254;2023-03-19T10:57:18;18.48;;;12.40;;
71679;SDS011;59512;42.662;23.254;2023-03-19T10:59:46;19.05;;;12.13;;
71679;SDS011;59512;42.662;23.254;2023-03-19T11:02:16;16.73;;;11.13;;
71679;SDS011;59512;42.662;23.254;2023-03-19T11:04:43;19.05;;;11.77;;
71679;SDS011;59512;42.662;23.254;2023-03-19T11:07:19;19.60;;;11.27;;
71679;SDS011;59512;42.662;23.254;2023-03-19T11:09:48;16.83;;;10.95;;
71679;SDS011;59512;42.662;23.254;2023-03-19T11:12:21;17.48;;;10.63;;
71679;SDS011;59512;42.662;23.254;2023-03-19T11:17:48;19.45;;;11.15;;
71679;SDS011;59512;42.662;23.254;2023-03-19T11:22:50;15.48;;;10.43;;
71679;SDS011;59512;42.662;23.254;2023-03-19T11:25:24;19.63;;;11.55;;
71679;SDS011;59512;42.662;23.254;2023-03-19T11:28:02;19.35;;;11.10;;
71679;SDS011;59512;42.662;23.254;2023-03-19T11:30:42;18.30;;;10.50;;
71679;SDS011;59512;42.662;23.254;2023-03-19T11:44:16;15.60;;;10.35;;
71679;SDS011;59512;42.662;23.254;2023-03-19T11:46:55;16.13;;;9.67;;
71679;SDS011;59512;42.662;23.254;2023-03-19T11:49:44;18.33;;;10.15;;
71679;SDS011;59512;42.662;23.254;2023-03-19T11:58:07;18.45;;;10.00;;
71679;SDS011;59512;42.662;23.254;2023-03-19T12:00:55;14.87;;;9.27;;
71679;SDS011;59512;42.662;23.254;2023-03-19T12:03:40;16.95;;;10.02;;
71679;SDS011;59512;42.662;23.254;2023-03-19T12:14:13;15.87;;;9.80;;
71679;SDS011;59512;42.662;23.254;2023-03-19T12:24:59;15.23;;;9.93;;
71679;SDS011;59512;42.662;23.254;2023-03-19T12:27:51;15.60;;;9.80;;
71679;SDS011;59512;42.662;23.254;2023-03-19T12:35:45;17.10;;;9.45;;
71679;SDS011;59512;42.662;23.254;2023-03-19T12:38:26;16.05;;;9.35;;
71679;SDS011;59512;42.662;23.254;2023-03-19T12:40:59;18.37;;;10.83;;
71679;SDS011;59512;42.662;23.254;2023-03-19T12:43:33;16.35;;;9.80;;
71679;SDS011;59512;42.662;23.254;2023-03-19T12:48:42;17.60;;;9.30;;
71679;SDS011;59512;42.662;23.254;2023-03-19T12:51:14;17.13;;;9.45;;
71679;SDS011;59512;42.662;23.254;2023-03-19T12:53:45;12.93;;;8.97;;
71679;SDS011;59512;42.662;23.254;2023-03-19T12:59:07;14.18;;;8.77;;
71679;SDS011;59512;42.662;23.254;2023-03-19T13:01:35;16.90;;;9.00;;
71679;SDS011;59512;42.662;23.254;2023-03-19T13:07:06;13.33;;;8.87;;
71679;SDS011;59512;42.662;23.254;2023-03-19T13:09:51;14.40;;;9.35;;
71679;SDS011;59512;42.662;23.254;2023-03-19T13:12:33;13.73;;;8.60;;
71679;SDS011;59512;42.662;23.254;2023-03-19T13:23:21;14.80;;;8.80;;
71679;SDS011;59512;42.662;23.254;2023-03-19T13:25:50;14.30;;;8.13;;
71679;SDS011;59512;42.662;23.254;2023-03-19T13:28:25;13.85;;;8.30;;
71679;SDS011;59512;42.662;23.254;2023-03-19T13:31:15;14.30;;;9.07;;
71679;SDS011;59512;42.662;23.254;2023-03-19T13:33:49;19.10;;;8.47;;
71679;SDS011;59512;42.662;23.254;2023-03-19T13:36:17;17.33;;;8.90;;
71679;SDS011;59512;42.662;23.254;2023-03-19T13:38:46;15.37;;;8.87;;
71679;SDS011;59512;42.662;23.254;2023-03-19T13:43:58;16.67;;;8.20;;
71679;SDS011;59512;42.662;23.254;2023-03-19T13:46:27;13.43;;;7.97;;
71679;SDS011;59512;42.662;23.254;2023-03-19T13:49:08;13.32;;;7.88;;
71679;SDS011;59512;42.662;23.254;2023-03-19T13:51:43;14.07;;;8.17;;
71679;SDS011;59512;42.662;23.254;2023-03-19T13:59:28;14.95;;;8.52;;
71679;SDS011;59512;42.662;23.254;2023-03-19T14:01:55;12.70;;;8.10;;
71679;SDS011;59512;42.662;23.254;2023-03-19T14:04:28;13.40;;;7.60;;
71679;SDS011;59512;42.662;23.254;2023-03-19T14:06:57;14.00;;;7.82;;
71679;SDS011;59512;42.662;23.254;2023-03-19T14:09:41;13.85;;;8.25;;
71679;SDS011;59512;42.662;23.254;2023-03-19T14:14:43;14.57;;;8.87;;
71679;SDS011;59512;42.662;23.254;2023-03-19T14:19:59;14.60;;;8.25;;
71679;SDS011;59512;42.662;23.254;2023-03-19T14:28:25;14.03;;;7.93;;
71679;SDS011;59512;42.662;23.254;2023-03-19T14:31:19;13.13;;;7.80;;
71679;SDS011;59512;42.662;23.254;2023-03-19T14:36:45;13.15;;;7.95;;
71679;SDS011;59512;42.662;23.254;2023-03-19T14:39:21;12.57;;;7.38;;
71679;SDS011;59512;42.662;23.254;2023-03-19T14:41:49;15.93;;;8.50;;
71679;SDS011;59512;42.662;23.254;2023-03-19T14:44:38;14.60;;;7.93;;
71679;SDS011;59512;42.662;23.254;2023-03-19T14:52:51;16.23;;;8.00;;
71679;SDS011;59512;42.662;23.254;2023-03-19T14:55:38;15.77;;;9.30;;
71679;SDS011;59512;42.662;23.254;2023-03-19T14:58:05;14.02;;;8.23;;
71679;SDS011;59512;42.662;23.254;2023-03-19T15:00:41;15.13;;;8.60;;
71679;SDS011;59512;42.662;23.254;2023-03-19T15:03:29;14.63;;;8.38;;
71679;SDS011;59512;42.662;23.254;2023-03-19T15:06:01;16.08;;;9.38;;
71679;SDS011;59512;42.662;23.254;2023-03-19T15:08:31;17.20;;;11.07;;
71679;SDS011;59512;42.662;23.254;2023-03-19T15:18:51;18.95;;;11.05;;
71679;SDS011;59512;42.662;23.254;2023-03-19T15:21:17;14.30;;;9.83;;
71679;SDS011;59512;42.662;23.254;2023-03-19T15:23:44;19.57;;;10.47;;
71679;SDS011;59512;42.662;23.254;2023-03-19T15:26:10;16.60;;;10.35;;
71679;SDS011;59512;42.662;23.254;2023-03-19T15:28:43;19.10;;;11.43;;
71679;SDS011;59512;42.662;23.254;2023-03-19T15:31:12;16.73;;;11.23;;
71679;SDS011;59512;42.662;23.254;2023-03-19T15:33:38;18.45;;;11.20;;
71679;SDS011;59512;42.662;23.254;2023-03-19T15:36:14;15.75;;;10.57;;
71679;SDS011;59512;42.662;23.254;2023-03-19T15:39:03;17.23;;;10.75;;
71679;SDS011;59512;42.662;23.254;2023-03-19T15:41:30;19.53;;;11.27;;
71679;SDS011;59512;42.662;23.254;2023-03-19T15:43:57;19.10;;;11.80;;
71679;SDS011;59512;42.662;23.254;2023-03-19T15:46:26;21.75;;;12.07;;
71679;SDS011;59512;42.662;23.254;2023-03-19T15:51:37;16.27;;;10.27;;
71679;SDS011;59512;42.662;23.254;2023-03-19T15:54:03;17.03;;;10.20;;
71679;SDS011;59512;42.662;23.254;2023-03-19T15:56:29;14.73;;;9.82;;
71679;SDS011;59512;42.662;23.254;2023-03-19T15:58:56;16.05;;;9.90;;
71679;SDS011;59512;42.662;23.254;2023-03-19T16:01:22;17.33;;;9.90;;
71679;SDS011;59512;42.662;23.254;2023-03-19T16:03:49;18.80;;;10.10;;
71679;SDS011;59512;42.662;23.254;2023-03-19T16:08:48;14.57;;;9.32;;
71679;SDS011;59512;42.662;23.254;2023-03-19T16:11:33;15.17;;;9.00;;
71679;SDS011;59512;42.662;23.254;2023-03-19T16:16:34;61.30;;;34.95;;
71679;SDS011;59512;42.662;23.254;2023-03-19T16:19:02;76.20;;;50.22;;
71679;SDS011;59512;42.662;23.254;2023-03-19T16:26:58;26.70;;;18.02;;
71679;SDS011;59512;42.662;23.254;2023-03-19T16:30:14;18.55;;;10.25;;
71679;SDS011;59512;42.662;23.254;2023-03-19T16:32:24;22.10;;;13.20;;
71679;SDS011;59512;42.662;23.254;2023-03-19T16:35:04;20.27;;;12.80;;
71679;SDS011;59512;42.662;23.254;2023-03-19T16:42:36;18.80;;;11.32;;